createdAt,value
2018-08-17T00:00:12.168Z,1004.56
2018-08-17T00:00:52.565Z,1004.56
2018-08-17T00:01:33.006Z,1004.54
2018-08-17T00:04:00.677Z,1004.54
2018-08-17T00:04:41.040Z,1004.51
2018-08-17T00:05:21.541Z,1004.52
2018-08-17T00:06:01.834Z,1004.53
2018-08-17T00:06:42.243Z,1004.55
2018-08-17T00:07:22.673Z,1004.57
2018-08-17T00:08:03.071Z,1004.57
2018-08-17T00:08:43.469Z,1004.53
2018-08-17T00:09:23.851Z,1004.53
2018-08-17T00:10:04.255Z,1004.53
2018-08-17T00:10:44.629Z,1004.54
2018-08-17T00:11:25.060Z,1004.55
2018-08-17T00:12:05.424Z,1004.53
2018-08-17T00:12:45.834Z,1004.54
2018-08-17T00:13:26.281Z,1004.51
2018-08-17T00:14:06.669Z,1004.49
2018-08-17T00:14:47.047Z,1004.5
2018-08-17T00:15:27.425Z,1004.44
2018-08-17T00:16:07.855Z,1004.47
2018-08-17T00:16:48.236Z,1004.47
2018-08-17T00:17:28.614Z,1004.43
2018-08-17T00:18:09.018Z,1004.45
2018-08-17T00:18:49.505Z,1004.48
2018-08-17T00:19:29.818Z,1004.42
2018-08-17T00:20:10.296Z,1004.43
2018-08-17T00:20:50.642Z,1004.41
2018-08-17T00:21:31.032Z,1004.43
2018-08-17T00:22:11.494Z,1004.38
2018-08-17T00:22:51.883Z,1004.35
2018-08-17T00:23:32.295Z,1004.38
2018-08-17T00:24:12.647Z,1004.41
2018-08-17T00:24:53.109Z,1004.41
2018-08-17T00:25:33.580Z,1004.41
2018-08-17T00:26:13.909Z,1004.36
2018-08-17T00:26:54.302Z,1004.38
2018-08-17T00:27:34.698Z,1004.38
2018-08-17T00:28:15.064Z,1004.41
2018-08-17T00:28:55.492Z,1004.37
2018-08-17T00:29:35.915Z,1004.34
2018-08-17T00:30:16.292Z,1004.38
2018-08-17T00:30:56.708Z,1004.35
2018-08-17T00:31:37.081Z,1004.38
2018-08-17T00:32:17.472Z,1004.35
2018-08-17T00:32:57.904Z,1004.33
2018-08-17T00:33:38.349Z,1004.36
2018-08-17T00:34:18.710Z,1004.35
2018-08-17T00:34:59.164Z,1004.33
2018-08-17T00:35:39.506Z,1004.33
2018-08-17T00:36:19.980Z,1004.34
2018-08-17T00:37:00.412Z,1004.34
2018-08-17T00:37:40.801Z,1004.34
2018-08-17T00:38:21.242Z,1004.3
2018-08-17T00:39:01.591Z,1004.29
2018-08-17T00:39:42.023Z,1004.31
2018-08-17T00:40:22.390Z,1004.3
2018-08-17T00:41:02.815Z,1004.29
2018-08-17T00:41:43.247Z,1004.34
2018-08-17T00:42:23.706Z,1004.3
2018-08-17T00:43:04.048Z,1004.31
2018-08-17T00:43:44.500Z,1004.33
2018-08-17T00:44:24.883Z,1004.36
2018-08-17T00:45:05.286Z,1004.31
2018-08-17T00:45:45.650Z,1004.33
2018-08-17T00:46:26.046Z,1004.32
2018-08-17T00:47:06.438Z,1004.32
2018-08-17T00:47:46.878Z,1004.31
2018-08-17T00:48:27.275Z,1004.33
2018-08-17T00:49:07.667Z,1004.32
2018-08-17T00:49:48.067Z,1004.31
2018-08-17T00:50:28.440Z,1004.31
2018-08-17T00:51:08.908Z,1004.33
2018-08-17T00:51:49.352Z,1004.36
2018-08-17T00:52:29.746Z,1004.29
2018-08-17T00:53:10.096Z,1004.31
2018-08-17T00:53:50.665Z,1004.31
2018-08-17T00:54:30.946Z,1004.29
2018-08-17T00:55:11.481Z,1004.29
2018-08-17T00:55:51.781Z,1004.31
2018-08-17T00:56:32.160Z,1004.31
2018-08-17T00:57:12.539Z,1004.33
2018-08-17T00:57:52.989Z,1004.31
2018-08-17T00:58:33.426Z,1004.34
2018-08-17T00:59:13.822Z,1004.33
2018-08-17T00:59:54.207Z,1004.37
2018-08-17T01:00:34.600Z,1004.38
2018-08-17T01:01:15.041Z,1004.37
2018-08-17T01:01:55.504Z,1004.36
2018-08-17T01:02:35.860Z,1004.39
2018-08-17T01:03:16.300Z,1004.37
2018-08-17T01:03:56.715Z,1004.39
2018-08-17T01:04:37.077Z,1004.41
2018-08-17T01:05:17.469Z,1004.44
2018-08-17T01:05:57.983Z,1004.44
2018-08-17T01:06:38.314Z,1004.49
2018-08-17T01:07:18.882Z,1004.48
2018-08-17T01:07:59.335Z,1004.51
2018-08-17T01:08:39.653Z,1004.49
2018-08-17T01:09:20.173Z,1004.54
2018-08-17T01:10:00.569Z,1004.5
2018-08-17T01:10:41.017Z,1004.52
2018-08-17T01:11:21.531Z,1004.51
2018-08-17T01:12:01.867Z,1004.51
2018-08-17T01:12:42.260Z,1004.52
2018-08-17T01:13:22.572Z,1004.51
2018-08-17T01:14:03.084Z,1004.48
2018-08-17T01:14:43.501Z,1004.55
2018-08-17T01:15:23.910Z,1004.52
2018-08-17T01:16:04.327Z,1004.55
2018-08-17T01:16:44.749Z,1004.61
2018-08-17T01:17:25.142Z,1004.58
2018-08-17T01:18:05.562Z,1004.62
2018-08-17T01:18:45.984Z,1004.6
2018-08-17T01:19:26.389Z,1004.6
2018-08-17T01:20:06.822Z,1004.64
2018-08-17T01:20:47.170Z,1004.6
2018-08-17T01:21:27.652Z,1004.62
2018-08-17T01:22:08.129Z,1004.6
2018-08-17T01:22:48.438Z,1004.59
2018-08-17T01:23:28.789Z,1004.62
2018-08-17T01:24:09.184Z,1004.63
2018-08-17T01:24:49.641Z,1004.61
2018-08-17T01:25:30.050Z,1004.64
2018-08-17T01:26:10.418Z,1004.65
2018-08-17T01:26:50.826Z,1004.66
2018-08-17T01:27:31.186Z,1004.68
2018-08-17T01:28:11.654Z,1004.7
2018-08-17T01:28:52.556Z,1004.71
2018-08-17T01:29:32.965Z,1004.74
2018-08-17T01:30:13.349Z,1004.76
2018-08-17T01:30:53.761Z,1004.77
2018-08-17T01:31:34.273Z,1004.8
2018-08-17T01:32:14.651Z,1004.83
2018-08-17T01:32:54.987Z,1004.82
2018-08-17T01:33:35.491Z,1004.87
2018-08-17T01:34:15.939Z,1004.83
2018-08-17T01:34:56.314Z,1004.87
2018-08-17T01:35:36.662Z,1004.89
2018-08-17T01:36:17.013Z,1004.86
2018-08-17T01:36:57.543Z,1004.91
2018-08-17T01:37:37.918Z,1004.88
2018-08-17T01:38:18.299Z,1004.89
2018-08-17T01:38:58.732Z,1004.95
2018-08-17T01:39:39.418Z,1004.95
2018-08-17T01:40:20.286Z,1004.97
2018-08-17T01:41:02.270Z,1005.04
2018-08-17T01:41:45.666Z,1005.1
2018-08-17T01:42:26.057Z,1005.15
2018-08-17T01:43:06.553Z,1005.14
2018-08-17T01:43:47.048Z,1005.16
2018-08-17T01:44:27.894Z,1005.18
2018-08-17T01:45:08.163Z,1005.22
2018-08-17T01:45:48.605Z,1005.21
2018-08-17T01:46:29.817Z,1005.12
2018-08-17T01:47:10.555Z,1005.18
2018-08-17T01:47:52.176Z,1005.22
2018-08-17T01:48:32.401Z,1005.2
2018-08-17T01:49:13.035Z,1005.23
2018-08-17T01:49:53.652Z,1005.26
2018-08-17T01:50:34.593Z,1005.2
2018-08-17T01:51:16.608Z,1005.2
2018-08-17T01:51:57.006Z,1005.22
2018-08-17T01:52:37.227Z,1005.25
2018-08-17T01:53:18.308Z,1005.21
2018-08-17T01:53:59.848Z,1005.23
2018-08-17T01:54:41.133Z,1005.28
2018-08-17T01:55:21.277Z,1005.25
2018-08-17T01:56:01.770Z,1005.31
2018-08-17T01:56:42.214Z,1005.33
2018-08-17T01:57:23.329Z,1005.31
2018-08-17T01:58:03.765Z,1005.34
2018-08-17T01:58:44.284Z,1005.3
2018-08-17T01:59:24.565Z,1005.31
2018-08-17T02:00:05.103Z,1005.31
2018-08-17T02:05:02.065Z,1005.37
2018-08-17T02:05:43.035Z,1005.41
2018-08-17T02:06:23.369Z,1005.46
2018-08-17T02:07:04.125Z,1005.39
2018-08-17T02:07:44.791Z,1005.47
2018-08-17T02:08:25.206Z,1005.46
2018-08-17T02:09:05.563Z,1005.51
2018-08-17T02:09:46.610Z,1005.49
2018-08-17T02:10:26.668Z,1005.51
2018-08-17T02:11:07.070Z,1005.55
2018-08-17T02:11:47.696Z,1005.57
2018-08-17T02:12:28.241Z,1005.61
2018-08-17T02:13:08.672Z,1005.63
2018-08-17T02:13:49.135Z,1005.63
2018-08-17T02:14:29.677Z,1005.57
2018-08-17T02:15:10.189Z,1005.55
2018-08-17T02:15:51.017Z,1005.53
2018-08-17T02:16:31.323Z,1005.61
2018-08-17T02:17:11.691Z,1005.65
2018-08-17T02:17:52.172Z,1005.62
2018-08-17T02:18:32.784Z,1005.6
2018-08-17T02:19:13.430Z,1005.61
2018-08-17T02:19:54.470Z,1005.66
2018-08-17T02:20:35.072Z,1005.67
2018-08-17T02:21:15.718Z,1005.74
2018-08-17T02:21:57.790Z,1005.77
2018-08-17T02:22:38.154Z,1005.83
2018-08-17T02:23:18.391Z,1005.81
2018-08-17T02:23:59.190Z,1005.83
2018-08-17T02:24:39.902Z,1005.85
2018-08-17T02:25:20.948Z,1005.84
2018-08-17T02:26:01.382Z,1005.87
2018-08-17T02:26:41.711Z,1005.89
2018-08-17T02:27:22.532Z,1005.93
2018-08-17T02:28:03.416Z,1005.91
2018-08-17T02:28:43.997Z,1005.92
2018-08-17T02:29:24.617Z,1005.88
2018-08-17T02:30:05.147Z,1005.84
2018-08-17T02:30:45.960Z,1005.82
2018-08-17T02:31:26.120Z,1005.76
2018-08-17T02:32:07.281Z,1005.78
2018-08-17T02:32:47.665Z,1005.74
2018-08-17T02:33:28.179Z,1005.74
2018-08-17T02:34:08.643Z,1005.72
2018-08-17T02:34:49.080Z,1005.75
2018-08-17T02:35:30.243Z,1005.78
2018-08-17T02:36:11.321Z,1005.82
2018-08-17T02:36:52.352Z,1005.83
2018-08-17T02:37:32.646Z,1005.9
2018-08-17T02:38:13.131Z,1005.94
2018-08-17T02:38:54.515Z,1005.94
2018-08-17T02:39:34.800Z,1005.95
2018-08-17T02:40:15.228Z,1005.97
2018-08-17T02:40:55.772Z,1005.98
2018-08-17T02:41:36.204Z,1005.89
2018-08-17T02:42:16.888Z,1005.95
2018-08-17T02:42:57.232Z,1005.91
2018-08-17T02:43:37.724Z,1005.93
2018-08-17T02:44:23.142Z,1005.95
2018-08-17T02:45:03.639Z,1005.91
2018-08-17T02:45:44.182Z,1005.94
2018-08-17T02:46:24.629Z,1005.92
2018-08-17T02:47:05.071Z,1005.93
2018-08-17T02:47:45.597Z,1005.89
2018-08-17T02:48:26.164Z,1005.89
2018-08-17T02:49:06.642Z,1005.9
2018-08-17T02:49:47.426Z,1005.91
2018-08-17T02:50:27.948Z,1005.86
2018-08-17T02:51:08.488Z,1005.9
2018-08-17T02:51:49.100Z,1005.91
2018-08-17T02:52:30.613Z,1005.91
2018-08-17T02:53:12.220Z,1005.93
2018-08-17T02:53:53.052Z,1005.9
2018-08-17T02:54:33.363Z,1005.94
2018-08-17T02:55:13.816Z,1005.95
2018-08-17T02:55:55.865Z,1005.93
2018-08-17T02:56:36.294Z,1005.96
2018-08-17T02:57:17.464Z,1006.02
2018-08-17T02:57:57.759Z,1006.02
2018-08-17T02:58:38.386Z,1006.02
2018-08-17T02:59:19.295Z,1005.97
2018-08-17T02:59:59.737Z,1005.93
2018-08-17T03:00:40.127Z,1005.88
2018-08-17T03:01:20.475Z,1005.87
2018-08-17T03:02:01.178Z,1005.74
2018-08-17T03:02:41.793Z,1005.66
2018-08-17T03:03:21.978Z,1005.58
2018-08-17T03:04:02.569Z,1005.44
2018-08-17T03:04:43.293Z,1005.35
2018-08-17T03:05:23.835Z,1005.32
2018-08-17T03:08:47.713Z,1005.16
2018-08-17T03:09:27.220Z,1005.1
2018-08-17T03:10:08.029Z,1005.13
2018-08-17T03:10:48.463Z,1005.09
2018-08-17T03:11:31.513Z,1005.13
2018-08-17T03:12:17.356Z,1005.08
2018-08-17T03:12:59.914Z,1005
2018-08-17T03:13:42.255Z,1005.01
2018-08-17T03:14:22.668Z,1005.07
2018-08-17T03:15:09.689Z,1005
2018-08-17T03:18:37.203Z,1004.99
2018-08-17T03:19:17.943Z,1005.1
2018-08-17T03:19:58.527Z,1005.06
2018-08-17T03:20:39.121Z,1005.15
2018-08-17T03:21:19.538Z,1005.19
2018-08-17T03:22:00.086Z,1005.26
2018-08-17T03:22:40.479Z,1005.27
2018-08-17T03:23:20.812Z,1005.31
2018-08-17T03:24:01.277Z,1005.37
2018-08-17T03:24:42.394Z,1005.42
2018-08-17T03:25:22.205Z,1005.47
2018-08-17T03:26:03.142Z,1005.5
2018-08-17T03:26:43.576Z,1005.55
2018-08-17T03:27:24.028Z,1005.61
2018-08-17T03:28:04.436Z,1005.65
2018-08-17T03:28:44.835Z,1005.63
2018-08-17T03:29:25.452Z,1005.71
2018-08-17T03:30:05.667Z,1005.69
2018-08-17T03:30:46.040Z,1005.75
2018-08-17T03:31:26.491Z,1005.76
2018-08-17T03:32:06.836Z,1005.76
2018-08-17T03:32:47.311Z,1005.76
2018-08-17T03:33:29.327Z,1005.78
2018-08-17T03:34:10.768Z,1005.83
2018-08-17T03:34:50.577Z,1005.8
2018-08-17T03:35:30.892Z,1005.88
2018-08-17T03:36:11.277Z,1005.83
2018-08-17T03:36:51.706Z,1005.87
2018-08-17T03:37:32.097Z,1005.88
2018-08-17T03:38:12.484Z,1005.94
2018-08-17T03:38:52.894Z,1005.94
2018-08-17T03:39:33.264Z,1005.97
2018-08-17T03:40:13.693Z,1005.99
2018-08-17T03:40:54.192Z,1006.03
2018-08-17T03:41:34.612Z,1006.01
2018-08-17T03:42:15.120Z,1006
2018-08-17T03:42:55.589Z,1006.01
2018-08-17T03:43:36.046Z,1006.1
2018-08-17T03:44:18.899Z,1006.08
2018-08-17T03:45:00.078Z,1006.13
2018-08-17T03:45:40.341Z,1006.14
2018-08-17T03:46:20.584Z,1006.19
2018-08-17T03:47:00.992Z,1006.18
2018-08-17T03:47:41.627Z,1006.18
2018-08-17T03:48:22.115Z,1006.23
2018-08-17T03:49:02.835Z,1006.26
2018-08-17T03:49:43.917Z,1006.26
2018-08-17T03:50:23.651Z,1006.27
2018-08-17T03:51:04.061Z,1006.31
2018-08-17T03:51:45.257Z,1006.31
2018-08-17T03:52:26.564Z,1006.31
2018-08-17T03:53:06.842Z,1006.36
2018-08-17T03:53:48.066Z,1006.34
2018-08-17T03:54:28.618Z,1006.4
2018-08-17T03:55:09.071Z,1006.4
2018-08-17T03:55:49.423Z,1006.47
2018-08-17T03:56:29.955Z,1006.46
2018-08-17T03:57:10.444Z,1006.41
2018-08-17T03:59:34.185Z,1006.44
2018-08-17T04:00:15.130Z,1006.37
2018-08-17T04:00:55.380Z,1006.43
2018-08-17T04:01:35.820Z,1006.39
2018-08-17T04:02:16.596Z,1006.41
2018-08-17T04:02:57.140Z,1006.41
2018-08-17T04:03:37.926Z,1006.41
2018-08-17T04:04:18.306Z,1006.4
2018-08-17T04:04:58.828Z,1006.42
2018-08-17T04:05:39.263Z,1006.43
2018-08-17T04:06:19.713Z,1006.45
2018-08-17T04:07:00.498Z,1006.43
2018-08-17T04:07:40.595Z,1006.45
2018-08-17T04:08:20.990Z,1006.47
2018-08-17T04:09:01.694Z,1006.49
2018-08-17T04:09:42.289Z,1006.47
2018-08-17T04:10:22.680Z,1006.5
2018-08-17T04:11:03.111Z,1006.5
2018-08-17T04:11:44.099Z,1006.57
2018-08-17T04:12:24.687Z,1006.59
2018-08-17T04:13:05.435Z,1006.64
2018-08-17T04:13:46.344Z,1006.62
2018-08-17T04:14:27.427Z,1006.62
2018-08-17T04:15:07.988Z,1006.61
2018-08-17T04:15:48.338Z,1006.6
2018-08-17T04:16:29.427Z,1006.59
2018-08-17T04:17:10.221Z,1006.59
2018-08-17T04:17:50.567Z,1006.56
2018-08-17T04:18:30.918Z,1006.56
2018-08-17T04:19:11.484Z,1006.48
2018-08-17T04:19:52.006Z,1006.49
2018-08-17T04:20:32.488Z,1006.52
2018-08-17T04:21:12.941Z,1006.53
2018-08-17T04:21:53.322Z,1006.49
2018-08-17T04:22:34.537Z,1006.48
2018-08-17T04:23:15.505Z,1006.44
2018-08-17T04:23:55.928Z,1006.47
2018-08-17T04:24:36.456Z,1006.46
2018-08-17T04:25:17.319Z,1006.46
2018-08-17T04:25:58.459Z,1006.43
2018-08-17T04:26:39.259Z,1006.51
2018-08-17T04:27:19.496Z,1006.54
2018-08-17T04:27:59.926Z,1006.6
2018-08-17T04:28:40.254Z,1006.58
2018-08-17T05:11:52.836Z,1007.06
2018-08-17T05:12:33.201Z,1007.06
2018-08-17T05:13:13.621Z,1007.06
2018-08-17T05:16:35.516Z,1007.09
2018-08-17T05:17:16.494Z,1007.11
2018-08-17T05:17:56.955Z,1007.11
2018-08-17T05:18:37.295Z,1007.13
2018-08-17T05:19:17.750Z,1007.19
2018-08-17T05:19:58.138Z,1007.21
2018-08-17T05:20:38.584Z,1007.21
2018-08-17T05:21:18.949Z,1007.24
2018-08-17T05:21:59.456Z,1007.26
2018-08-17T05:22:39.889Z,1007.32
2018-08-17T05:23:21.648Z,1007.31
2018-08-17T05:24:01.662Z,1007.37
2018-08-17T05:24:43.161Z,1007.39
2018-08-17T05:25:25.156Z,1007.43
2018-08-17T05:26:05.561Z,1007.1
2018-08-17T05:26:48.770Z,1007.41
2018-08-17T05:27:31.123Z,1007.38
2018-08-17T05:28:12.730Z,1007.4
2018-08-17T05:28:53.894Z,1007.39
2018-08-17T05:29:34.587Z,1007.39
2018-08-17T05:30:15.526Z,1007.41
2018-08-17T05:30:56.219Z,1007.43
2018-08-17T05:31:36.622Z,1007.53
2018-08-17T05:34:00.979Z,1007.7
2018-08-17T05:34:55.884Z,1007.73
2018-08-17T05:35:49.326Z,1007.8
2018-08-17T05:36:43.119Z,1007.88
2018-08-17T05:37:35.361Z,1007.96
2018-08-17T05:38:27.194Z,1008.04
2018-08-17T05:39:21.289Z,1008.16
2018-08-17T05:40:15.010Z,1008.23
2018-08-17T05:40:55.298Z,1008.3
2018-08-17T05:41:35.921Z,1008.35
2018-08-17T05:42:16.083Z,1008.44
2018-08-17T05:42:56.457Z,1008.56
2018-08-17T05:43:36.962Z,1008.6
2018-08-17T05:44:17.483Z,1008.69
2018-08-17T05:44:57.856Z,1008.72
2018-08-17T05:45:38.362Z,1008.82
2018-08-17T05:46:18.735Z,1008.85
2018-08-17T05:46:59.331Z,1008.9
2018-08-17T05:47:39.952Z,1009.02
2018-08-17T05:48:21.115Z,1009.05
2018-08-17T05:49:01.437Z,1009.14
2018-08-17T05:49:41.860Z,1009.16
2018-08-17T05:50:22.264Z,1009.21
2018-08-17T05:51:02.714Z,1009.27
2018-08-17T05:51:43.315Z,1009.2
2018-08-17T05:52:24.004Z,1009.1
2018-08-17T05:53:05.777Z,1008.91
2018-08-17T05:53:46.400Z,1008.66
2018-08-17T05:54:27.209Z,1008.33
2018-08-17T05:55:08.214Z,1007.97
2018-08-17T05:55:55.906Z,1007.7
2018-08-17T05:56:47.992Z,1007.42
2018-08-17T06:03:35.945Z,1007.57
2018-08-17T06:08:53.560Z,1007.74
2018-08-17T06:09:30.253Z,1007.68
2018-08-17T06:10:11.704Z,1007.73
2018-08-17T06:10:53.799Z,1007.66
2018-08-17T06:11:34.235Z,1007.66
2018-08-17T06:12:15.802Z,1007.63
2018-08-17T06:12:55.763Z,1007.67
2018-08-17T06:13:36.897Z,1007.67
2018-08-17T06:14:20.470Z,1007.66
2018-08-17T06:15:01.030Z,1007.64
2018-08-17T06:15:41.702Z,1007.64
2018-08-17T06:16:21.858Z,1007.68
2018-08-17T06:17:02.369Z,1007.7
2018-08-17T06:17:43.270Z,1007.74
2018-08-17T06:18:23.726Z,1007.75
2018-08-17T06:19:04.126Z,1007.75
2018-08-17T06:19:44.535Z,1007.73
2018-08-17T06:20:24.968Z,1007.73
2018-08-17T06:21:05.369Z,1007.68
2018-08-17T06:21:45.791Z,1007.65
2018-08-17T06:22:26.596Z,1007.59
2018-08-17T06:23:09.165Z,1007.54
2018-08-17T06:23:52.098Z,1007.47
2018-08-17T06:24:33.046Z,1007.42
2018-08-17T06:25:13.595Z,1007.42
2018-08-17T06:25:54.622Z,1007.39
2018-08-17T06:26:34.932Z,1007.43
2018-08-17T06:27:17.769Z,1007.39
2018-08-17T06:27:58.653Z,1007.4
2018-08-17T06:28:39.370Z,1007.41
2018-08-17T06:29:19.891Z,1007.43
2018-08-17T06:30:05.111Z,1007.48
2018-08-17T06:30:44.778Z,1007.51
2018-08-17T06:31:26.101Z,1007.57
2018-08-17T06:33:45.703Z,1007.81
2018-08-17T06:34:26.129Z,1007.84
2018-08-17T06:35:06.529Z,1007.84
2018-08-17T06:35:46.949Z,1007.85
2018-08-17T06:36:27.461Z,1007.81
2018-08-17T06:37:07.895Z,1007.83
2018-08-17T06:37:48.348Z,1007.8
2018-08-17T06:38:28.769Z,1007.76
2018-08-17T06:39:09.828Z,1007.72
2018-08-17T06:39:49.774Z,1007.63
2018-08-17T06:40:30.286Z,1007.61
2018-08-17T06:41:10.721Z,1007.6
2018-08-17T06:41:51.115Z,1007.58
2018-08-17T06:42:31.491Z,1007.61
2018-08-17T06:43:12.024Z,1007.68
2018-08-17T06:44:08.882Z,1007.85
2018-08-17T06:44:49.850Z,1007.94
2018-08-17T06:45:30.071Z,1008.05
2018-08-17T06:46:10.749Z,1008.09
2018-08-17T06:46:51.949Z,1008.15
2018-08-17T06:47:33.553Z,1008.16
2018-08-17T06:48:13.696Z,1008.15
2018-08-17T06:48:54.746Z,1008.17
2018-08-17T06:49:35.035Z,1008.14
2018-08-17T06:50:15.834Z,1008.16
2018-08-17T06:50:57.066Z,1008.15
2018-08-17T06:51:36.988Z,1008.14
2018-08-17T06:52:17.421Z,1008.11
2018-08-17T06:52:57.839Z,1008.11
2018-08-17T06:53:38.273Z,1008.08
2018-08-17T06:54:18.735Z,1008.06
2018-08-17T06:54:59.236Z,1008.06
2018-08-17T06:55:39.678Z,1008.05
2018-08-17T06:56:20.093Z,1008.06
2018-08-17T06:57:00.492Z,1008.03
2018-08-17T06:57:41.100Z,1008.03
2018-08-17T06:58:21.583Z,1008.05
2018-08-17T06:59:03.062Z,1008.06
2018-08-17T06:59:43.487Z,1008.08
2018-08-17T07:00:23.964Z,1008.07
2018-08-17T07:01:04.725Z,1008.07
2018-08-17T07:01:45.497Z,1008.03
2018-08-17T07:02:29.184Z,1008.02
2018-08-17T07:03:10.799Z,1007.97
2018-08-17T07:03:51.840Z,1007.89
2018-08-17T07:04:32.074Z,1007.84
2018-08-17T07:05:12.505Z,1007.82
2018-08-17T07:05:52.905Z,1007.8
2018-08-17T07:06:33.270Z,1007.8
2018-08-17T07:07:13.676Z,1007.83
2018-08-17T07:07:54.093Z,1007.82
2018-08-17T07:08:34.603Z,1007.82
2018-08-17T07:09:15.257Z,1007.86
2018-08-17T07:09:55.530Z,1007.9
2018-08-17T07:10:35.985Z,1007.95
2018-08-17T07:11:16.270Z,1007.96
2018-08-17T07:11:56.847Z,1007.98
2018-08-17T07:12:37.355Z,1007.98
2018-08-17T07:13:18.044Z,1007.97
2018-08-17T07:13:58.622Z,1007.94
2018-08-17T07:14:39.035Z,1007.93
2018-08-17T07:15:19.449Z,1007.94
2018-08-17T07:15:59.907Z,1007.92
2018-08-17T07:16:40.319Z,1008.03
2018-08-17T07:17:20.741Z,1007.95
2018-08-17T07:18:01.096Z,1007.87
2018-08-17T07:18:41.628Z,1007.81
2018-08-17T07:19:22.015Z,1007.77
2018-08-17T07:20:02.411Z,1007.68
2018-08-17T07:20:42.810Z,1007.6
2018-08-17T07:21:23.214Z,1007.56
2018-08-17T07:22:03.636Z,1007.59
2018-08-17T07:22:44.059Z,1007.53
2018-08-17T07:23:24.448Z,1007.5
2018-08-17T07:24:04.844Z,1007.49
2018-08-17T07:24:45.322Z,1007.51
2018-08-17T07:25:25.717Z,1007.52
2018-08-17T07:26:06.112Z,1007.51
2018-08-17T07:26:46.550Z,1007.5
2018-08-17T07:27:26.948Z,1007.51
2018-08-17T07:28:07.838Z,1007.48
2018-08-17T07:28:50.785Z,1007.51
2018-08-17T07:29:31.012Z,1007.53
2018-08-17T07:30:11.355Z,1007.58
2018-08-17T07:30:51.806Z,1007.56
2018-08-17T07:31:32.216Z,1007.59
2018-08-17T07:32:13.020Z,1007.59
2018-08-17T07:32:54.129Z,1007.59
2018-08-17T07:33:34.273Z,1007.54
2018-08-17T07:34:14.787Z,1007.54
2018-08-17T07:34:55.205Z,1007.52
2018-08-17T07:35:35.621Z,1007.47
2018-08-17T07:36:16.027Z,1007.45
2018-08-17T07:36:56.431Z,1007.44
2018-08-17T07:37:36.807Z,1007.46
2018-08-17T07:38:17.278Z,1007.49
2018-08-17T07:38:57.729Z,1007.49
2018-08-17T07:39:38.232Z,1007.55
2018-08-17T07:40:18.603Z,1007.58
2018-08-17T07:40:59.298Z,1007.65
2018-08-17T07:41:39.860Z,1007.72
2018-08-17T07:42:20.142Z,1007.76
2018-08-17T07:43:00.609Z,1007.81
2018-08-17T07:43:41.143Z,1007.87
2018-08-17T07:44:22.531Z,1007.91
2018-08-17T07:45:02.351Z,1007.94
2018-08-17T07:45:43.291Z,1007.96
2018-08-17T07:46:25.062Z,1008
2018-08-17T07:47:06.214Z,1008.01
2018-08-17T07:47:51.646Z,1008.05
2018-08-17T07:48:31.195Z,1008.07
2018-08-17T07:49:11.635Z,1008.09
2018-08-17T07:49:52.094Z,1008.1
2018-08-17T07:50:32.551Z,1008.14
2018-08-17T07:51:12.913Z,1008.14
2018-08-17T07:51:53.414Z,1008.14
2018-08-17T07:52:35.006Z,1008.18
2018-08-17T07:53:17.266Z,1008.13
2018-08-17T07:54:03.596Z,1008.12
2018-08-17T07:54:43.767Z,1008.14
2018-08-17T07:55:24.902Z,1008.12
2018-08-17T07:57:59.512Z,1008.07
2018-08-17T07:58:41.584Z,1008.08
2018-08-17T07:59:21.942Z,1008.13
2018-08-17T08:00:02.420Z,1008.1
2018-08-17T08:00:42.936Z,1008.03
2018-08-17T08:01:23.496Z,1008
2018-08-17T08:02:04.250Z,1007.98
2018-08-17T08:02:46.436Z,1007.93
2018-08-17T08:03:27.097Z,1007.88
2018-08-17T08:04:08.225Z,1007.85
2018-08-17T08:04:49.976Z,1007.85
2018-08-17T08:05:30.639Z,1007.88
2018-08-17T08:06:11.441Z,1007.9
2018-08-17T08:06:51.993Z,1007.94
2018-08-17T08:07:32.985Z,1007.96
2018-08-17T08:08:14.226Z,1008.04
2018-08-17T08:08:54.499Z,1008.09
2018-08-17T08:09:35.469Z,1008.13
2018-08-17T08:10:16.296Z,1008.16
2018-08-17T08:10:56.732Z,1008.2
2018-08-17T08:11:37.487Z,1008.21
2018-08-17T08:12:17.991Z,1008.2
2018-08-17T08:12:58.382Z,1008.16
2018-08-17T08:13:38.953Z,1008.1
2018-08-17T08:14:19.409Z,1008.13
2018-08-17T08:15:01.357Z,1008.11
2018-08-17T08:15:41.963Z,1008.13
2018-08-17T08:16:22.417Z,1008.11
2018-08-17T08:17:02.892Z,1008.14
2018-08-17T08:17:43.476Z,1008.18
2018-08-17T08:18:24.267Z,1008.15
2018-08-17T08:19:04.962Z,1008.25
2018-08-17T08:19:45.317Z,1008.25
2018-08-17T08:20:26.186Z,1008.3
2018-08-17T08:21:08.293Z,1008.31
2018-08-17T08:21:48.349Z,1008.35
2018-08-17T08:22:29.126Z,1008.35
2018-08-17T08:23:09.383Z,1008.38
2018-08-17T08:23:50.378Z,1008.38
2018-08-17T08:24:31.446Z,1008.39
2018-08-17T08:25:13.813Z,1008.38
2018-08-17T08:25:55.106Z,1008.4
2018-08-17T08:26:35.851Z,1008.4
2018-08-17T08:27:16.691Z,1008.41
2018-08-17T08:31:47.433Z,1008.45
2018-08-17T08:32:45.815Z,1008.5
2018-08-17T08:33:38.766Z,1008.53
2018-08-17T08:34:36.354Z,1008.53
2018-08-17T08:35:28.389Z,1008.52
2018-08-17T08:36:25.063Z,1008.5
2018-08-17T08:37:27.163Z,1008.52
2018-08-17T08:38:27.500Z,1008.55
2018-08-17T08:39:24.946Z,1008.58
2018-08-17T08:40:19.678Z,1008.62
2018-08-17T08:41:18.776Z,1008.64
2018-08-17T08:42:19.465Z,1008.68
2018-08-17T08:43:29.764Z,1008.7
2018-08-17T08:44:29.963Z,1008.68
2018-08-17T08:45:22.662Z,1008.7
2018-08-17T08:46:18.074Z,1008.71
2018-08-17T08:47:13.771Z,1008.75
2018-08-17T08:48:07.512Z,1008.72
2018-08-17T08:49:03.689Z,1008.78
2018-08-17T08:49:57.544Z,1008.77
2018-08-17T08:50:54.927Z,1008.81
2018-08-17T08:51:51.907Z,1008.81
2018-08-17T08:52:50.934Z,1008.79
2018-08-17T08:53:49.198Z,1008.82
2018-08-17T08:56:42.529Z,1008.86
2018-08-17T08:57:24.110Z,1008.92
2018-08-17T08:58:04.903Z,1008.93
2018-08-17T08:58:45.461Z,1008.94
2018-08-17T09:00:59.047Z,1008.94
2018-08-17T09:02:09.104Z,1008.96
2018-08-17T09:03:20.965Z,1008.89
2018-08-17T09:04:35.214Z,1008.96
2018-08-17T09:06:29.134Z,1009.03
2018-08-17T09:07:11.855Z,1009.07
2018-08-17T09:07:52.283Z,1009.07
2018-08-17T09:08:33.015Z,1009.12
2018-08-17T09:09:13.461Z,1009.13
2018-08-17T09:09:54.686Z,1009.11
2018-08-17T09:10:36.510Z,1009.1
2018-08-17T09:11:16.864Z,1009.1
2018-08-17T09:11:57.485Z,1009.14
2018-08-17T09:12:41.117Z,1009.11
2018-08-17T09:13:22.161Z,1009.1
2018-08-17T09:14:04.455Z,1009.1
2018-08-17T09:14:44.789Z,1009.05
2018-08-17T09:15:25.393Z,1009.08
2018-08-17T09:16:06.816Z,1009.07
2018-08-17T09:16:47.776Z,1009.05
2018-08-17T09:17:30.154Z,1009.07
2018-08-17T09:21:35.698Z,1009.11
2018-08-17T09:22:16.043Z,1009.11
2018-08-17T09:22:56.624Z,1009.14
2018-08-17T09:23:37.161Z,1009.11
2018-08-17T09:24:18.917Z,1009.13
2018-08-17T09:24:59.646Z,1009.13
2018-08-17T09:25:40.108Z,1009.12
2018-08-17T09:26:20.559Z,1009.13
2018-08-17T09:27:01.151Z,1009.11
2018-08-17T09:27:44.066Z,1009.07
2018-08-17T09:28:25.062Z,1009.11
2018-08-17T09:29:05.719Z,1009.11
2018-08-17T09:29:46.237Z,1009.12
2018-08-17T09:30:26.643Z,1009.17
2018-08-17T09:31:07.155Z,1009.11
2018-08-17T09:31:47.702Z,1009.12
2018-08-17T09:35:22.047Z,1009.13
2018-08-17T09:36:02.410Z,1009.13
2018-08-17T09:36:42.796Z,1009.14
2018-08-17T09:37:23.231Z,1009.18
2018-08-17T09:38:03.727Z,1009.1
2018-08-17T09:38:44.551Z,1009.12
2018-08-17T09:39:25.396Z,1009.07
2018-08-17T09:40:06.473Z,1009.11
2018-08-17T09:40:48.401Z,1009.1
2018-08-17T09:41:29.005Z,1009.08
2018-08-17T09:42:09.602Z,1009.05
2018-08-17T09:42:50.658Z,1009.05
2018-08-17T09:43:34.839Z,1009.05
2018-08-17T09:44:15.466Z,1009.09
2018-08-17T09:44:56.253Z,1009.1
2018-08-17T09:45:36.904Z,1009.08
2018-08-17T09:46:18.145Z,1009.12
2018-08-17T09:46:58.036Z,1009.13
2018-08-17T09:47:38.812Z,1009.14
2018-08-17T09:48:19.353Z,1009.11
2018-08-17T09:49:00.040Z,1009.14
2018-08-17T09:49:40.421Z,1009.14
2018-08-17T09:50:20.880Z,1009.13
2018-08-17T09:51:01.772Z,1009.13
2018-08-17T09:51:42.419Z,1009.12
2018-08-17T09:52:22.935Z,1009.14
2018-08-17T09:53:03.928Z,1009.2
2018-08-17T09:53:45.408Z,1009.12